createdAt,value
2018-11-27T00:00:08.609Z,982.89
2018-11-27T00:01:08.854Z,982.91
2018-11-27T00:02:08.928Z,982.89
2018-11-27T00:03:09.124Z,982.87
2018-11-27T00:04:09.316Z,982.86
2018-11-27T00:05:09.505Z,982.87
2018-11-27T00:06:09.744Z,982.90
2018-11-27T00:07:09.815Z,982.87
2018-11-27T00:08:09.983Z,982.88
2018-11-27T00:09:10.179Z,982.90
2018-11-27T00:10:10.353Z,982.82
2018-11-27T00:11:10.535Z,982.87
2018-11-27T00:12:10.713Z,982.87
2018-11-27T00:13:10.902Z,982.91
2018-11-27T00:14:11.077Z,982.95
2018-11-27T00:15:11.264Z,982.94
2018-11-27T00:16:11.447Z,982.91
2018-11-27T00:17:11.626Z,982.94
2018-11-27T00:18:11.810Z,982.96
2018-11-27T00:19:11.989Z,982.99
2018-11-27T00:20:12.163Z,982.99
2018-11-27T00:21:12.347Z,983.04
2018-11-27T00:22:12.530Z,983.02
2018-11-27T00:23:12.712Z,983.06
2018-11-27T00:24:12.893Z,983.05
2018-11-27T00:25:13.076Z,983.05
2018-11-27T00:26:13.266Z,983.07
2018-11-27T00:27:13.442Z,983.05
2018-11-27T00:28:13.620Z,983.06
2018-11-27T00:29:13.794Z,983.09
2018-11-27T00:30:13.986Z,983.08
2018-11-27T00:31:14.155Z,983.10
2018-11-27T00:32:14.341Z,983.11
2018-11-27T00:33:14.516Z,983.11
2018-11-27T00:34:14.720Z,983.11
2018-11-27T00:35:14.888Z,983.11
2018-11-27T00:36:15.066Z,983.09
2018-11-27T00:37:15.251Z,983.04
2018-11-27T00:38:15.430Z,983.07
2018-11-27T00:39:15.606Z,983.05
2018-11-27T00:40:15.790Z,983.10
2018-11-27T00:41:15.965Z,983.10
2018-11-27T00:42:16.143Z,983.11
2018-11-27T00:43:16.333Z,983.12
2018-11-27T00:44:16.499Z,983.12
2018-11-27T00:45:16.688Z,983.18
2018-11-27T00:46:16.872Z,983.13
2018-11-27T00:47:17.047Z,983.17
2018-11-27T00:48:17.230Z,983.17
2018-11-27T00:49:17.403Z,983.19
2018-11-27T00:50:17.586Z,983.18
2018-11-27T00:51:17.756Z,983.19
2018-11-27T00:52:17.950Z,983.22
2018-11-27T00:53:18.133Z,983.18
2018-11-27T00:54:18.319Z,983.19
2018-11-27T00:55:18.497Z,983.19
2018-11-27T00:56:18.677Z,983.20
2018-11-27T00:57:18.851Z,983.22
2018-11-27T00:58:19.037Z,983.23
2018-11-27T00:59:19.221Z,983.24
2018-11-27T01:00:19.400Z,983.25
2018-11-27T01:01:19.583Z,983.27
2018-11-27T01:02:19.762Z,983.27
2018-11-27T01:03:19.942Z,983.30
2018-11-27T01:04:20.127Z,983.30
2018-11-27T01:05:20.300Z,983.29
2018-11-27T01:06:20.483Z,983.28
2018-11-27T01:07:20.663Z,983.27
2018-11-27T01:08:20.841Z,983.27
2018-11-27T01:09:21.023Z,983.29
2018-11-27T01:10:21.202Z,983.27
2018-11-27T01:11:21.379Z,983.31
2018-11-27T01:12:21.563Z,983.28
2018-11-27T01:13:21.747Z,983.32
2018-11-27T01:14:21.925Z,983.32
2018-11-27T01:15:22.106Z,983.33
2018-11-27T01:16:22.289Z,983.34
2018-11-27T01:17:22.465Z,983.35
2018-11-27T01:18:22.655Z,983.41
2018-11-27T01:19:22.828Z,983.41
2018-11-27T01:20:23.010Z,983.41
2018-11-27T01:21:23.190Z,983.43
2018-11-27T01:22:23.370Z,983.45
2018-11-27T01:23:23.563Z,983.44
2018-11-27T01:24:23.736Z,983.42
2018-11-27T01:25:23.915Z,983.46
2018-11-27T01:26:24.092Z,983.49
2018-11-27T01:27:24.276Z,983.51
2018-11-27T01:28:24.456Z,983.55
2018-11-27T01:29:24.636Z,983.54
2018-11-27T01:30:24.817Z,983.55
2018-11-27T01:31:24.999Z,983.55
2018-11-27T01:32:25.173Z,983.58
2018-11-27T01:33:25.356Z,983.59
2018-11-27T01:34:25.525Z,983.58
2018-11-27T01:35:25.714Z,983.58
2018-11-27T01:36:25.893Z,983.64
2018-11-27T01:37:26.067Z,983.59
2018-11-27T01:38:26.250Z,983.57
2018-11-27T01:39:26.431Z,983.59
2018-11-27T01:40:26.602Z,983.59
2018-11-27T01:41:26.790Z,983.60
2018-11-27T01:42:26.967Z,983.58
2018-11-27T01:43:27.792Z,983.62
2018-11-27T01:44:27.324Z,983.64
2018-11-27T01:45:27.499Z,983.62
2018-11-27T01:46:27.686Z,983.66
2018-11-27T01:47:27.866Z,983.69
2018-11-27T01:48:28.051Z,983.67
2018-11-27T01:49:28.234Z,983.67
2018-11-27T01:50:28.414Z,983.70
2018-11-27T01:51:28.601Z,983.67
2018-11-27T01:52:28.825Z,983.61
2018-11-27T01:53:28.960Z,983.63
2018-11-27T01:54:29.140Z,983.65
2018-11-27T01:55:29.322Z,983.65
2018-11-27T01:56:29.508Z,983.62
2018-11-27T01:57:29.691Z,983.62
2018-11-27T01:58:29.871Z,983.65
2018-11-27T01:59:30.056Z,983.62
2018-11-27T02:00:30.225Z,983.65
2018-11-27T02:01:30.405Z,983.66
2018-11-27T02:02:30.581Z,983.65
2018-11-27T02:03:30.760Z,983.67
2018-11-27T02:04:30.948Z,983.65
2018-11-27T02:05:31.132Z,983.67
2018-11-27T02:06:31.303Z,983.66
2018-11-27T02:07:31.480Z,983.63
2018-11-27T02:08:31.661Z,983.62
2018-11-27T02:09:31.845Z,983.59
2018-11-27T02:10:32.020Z,983.58
2018-11-27T02:11:32.212Z,983.58
2018-11-27T02:12:32.391Z,983.58
2018-11-27T02:13:32.570Z,983.57
2018-11-27T02:14:32.749Z,983.57
2018-11-27T02:15:32.929Z,983.58
2018-11-27T02:16:33.110Z,983.61
2018-11-27T02:17:33.291Z,983.60
2018-11-27T02:18:33.469Z,983.55
2018-11-27T02:19:33.647Z,983.56
2018-11-27T02:20:33.831Z,983.55
2018-11-27T02:21:34.010Z,983.58
2018-11-27T02:22:34.238Z,983.54
2018-11-27T02:23:34.384Z,983.59
2018-11-27T02:24:34.560Z,983.56
2018-11-27T02:25:34.730Z,983.55
2018-11-27T02:26:34.924Z,983.58
2018-11-27T02:27:35.105Z,983.58
2018-11-27T02:28:35.293Z,983.60
2018-11-27T02:29:35.470Z,983.54
2018-11-27T02:30:35.645Z,983.56
2018-11-27T02:31:35.826Z,983.54
2018-11-27T02:32:36.003Z,983.58
2018-11-27T02:33:36.188Z,983.61
2018-11-27T02:34:36.368Z,983.57
2018-11-27T02:35:36.549Z,983.59
2018-11-27T02:36:36.743Z,983.61
2018-11-27T02:37:36.928Z,983.63
2018-11-27T02:38:37.103Z,983.65
2018-11-27T02:39:37.280Z,983.63
2018-11-27T02:40:37.471Z,983.65
2018-11-27T02:41:37.640Z,983.62
2018-11-27T02:42:37.827Z,983.66
2018-11-27T02:43:38.010Z,983.68
2018-11-27T02:44:38.214Z,983.71
2018-11-27T02:45:38.392Z,983.71
2018-11-27T02:46:38.561Z,983.72
2018-11-27T02:47:38.737Z,983.67
2018-11-27T02:48:38.923Z,983.70
2018-11-27T02:49:39.098Z,983.69
2018-11-27T02:50:39.280Z,983.67
2018-11-27T02:51:39.451Z,983.69
2018-11-27T02:52:39.624Z,983.63
2018-11-27T02:53:39.808Z,983.60
2018-11-27T02:54:39.989Z,983.60
2018-11-27T02:55:40.169Z,983.59
2018-11-27T02:56:40.349Z,983.60
2018-11-27T02:57:40.532Z,983.55
2018-11-27T02:58:40.707Z,983.60
2018-11-27T02:59:40.896Z,983.59
2018-11-27T03:00:41.081Z,983.64
2018-11-27T03:01:41.258Z,983.64
2018-11-27T03:02:41.439Z,983.64
2018-11-27T03:03:41.617Z,983.68
2018-11-27T03:04:41.811Z,983.67
2018-11-27T03:05:41.985Z,983.67
2018-11-27T03:06:42.172Z,983.68
2018-11-27T03:07:42.351Z,983.71
2018-11-27T03:08:42.529Z,983.68
2018-11-27T03:09:42.709Z,983.67
2018-11-27T03:10:42.893Z,983.70
2018-11-27T03:11:43.070Z,983.74
2018-11-27T03:12:43.252Z,983.72
2018-11-27T03:13:43.434Z,983.70
2018-11-27T03:14:43.611Z,983.70
2018-11-27T03:15:43.791Z,983.75
2018-11-27T03:16:43.979Z,983.76
2018-11-27T03:17:44.159Z,983.75
2018-11-27T03:18:44.349Z,983.76
2018-11-27T03:19:44.517Z,983.77
2018-11-27T03:20:44.708Z,983.78
2018-11-27T03:21:44.884Z,983.78
2018-11-27T03:22:45.064Z,983.78
2018-11-27T03:23:45.245Z,983.79
2018-11-27T03:24:45.421Z,983.78
2018-11-27T03:25:45.607Z,983.76
2018-11-27T03:26:45.780Z,983.76
2018-11-27T03:27:45.967Z,983.78
2018-11-27T03:28:46.151Z,983.79
2018-11-27T03:29:46.345Z,983.78
2018-11-27T03:30:46.511Z,983.78
2018-11-27T03:31:46.786Z,983.82
2018-11-27T03:32:46.871Z,983.80
2018-11-27T03:33:47.052Z,983.82
2018-11-27T03:34:47.234Z,983.79
2018-11-27T03:35:47.419Z,983.86
2018-11-27T03:36:47.593Z,983.83
2018-11-27T03:37:47.812Z,983.87
2018-11-27T03:38:47.952Z,983.88
2018-11-27T03:39:48.133Z,983.85
2018-11-27T03:40:48.313Z,983.92
2018-11-27T03:41:48.553Z,983.89
2018-11-27T03:42:48.699Z,983.88
2018-11-27T03:43:48.882Z,983.91
2018-11-27T03:44:49.074Z,983.89
2018-11-27T03:45:49.246Z,983.95
2018-11-27T03:46:49.424Z,983.93
2018-11-27T03:47:49.602Z,983.91
2018-11-27T03:48:49.786Z,983.93
2018-11-27T03:49:49.963Z,983.94
2018-11-27T03:50:50.138Z,983.96
2018-11-27T03:51:50.324Z,983.93
2018-11-27T03:52:50.508Z,983.99
2018-11-27T03:53:50.688Z,983.97
2018-11-27T03:54:50.870Z,983.97
2018-11-27T03:55:51.041Z,984.03
2018-11-27T03:56:51.224Z,984.01
2018-11-27T03:57:51.403Z,984.01
2018-11-27T03:58:51.581Z,984.04
2018-11-27T03:59:51.766Z,984.00
2018-11-27T04:00:51.949Z,984.04
2018-11-27T04:01:52.136Z,984.04
2018-11-27T04:02:52.317Z,984.04
2018-11-27T04:03:52.499Z,984.03
2018-11-27T04:04:52.688Z,984.04
2018-11-27T04:05:52.863Z,984.03
2018-11-27T04:06:53.039Z,984.01
2018-11-27T04:07:53.226Z,984.00
2018-11-27T04:08:53.402Z,984.03
2018-11-27T04:09:53.582Z,984.00
2018-11-27T04:10:53.763Z,984.03
2018-11-27T04:11:53.943Z,984.07
2018-11-27T04:12:54.125Z,984.05
2018-11-27T04:13:54.301Z,984.08
2018-11-27T04:14:54.483Z,984.03
2018-11-27T04:15:54.665Z,984.06
2018-11-27T04:16:54.842Z,984.05
2018-11-27T04:17:55.024Z,984.05
2018-11-27T04:18:55.201Z,984.05
2018-11-27T04:19:55.381Z,984.05
2018-11-27T04:20:55.562Z,984.03
2018-11-27T04:21:55.754Z,984.09
2018-11-27T04:22:55.950Z,984.07
2018-11-27T04:23:56.113Z,984.06
2018-11-27T04:24:56.294Z,984.10
2018-11-27T04:25:56.474Z,984.10
2018-11-27T04:26:56.652Z,984.08
2018-11-27T04:27:56.846Z,984.16
2018-11-27T04:28:57.011Z,984.11
2018-11-27T04:29:57.200Z,984.10
2018-11-27T04:30:57.380Z,984.13
2018-11-27T04:31:57.555Z,984.12
2018-11-27T04:32:57.751Z,984.08
2018-11-27T04:33:57.926Z,984.09
2018-11-27T04:34:58.110Z,984.14
2018-11-27T04:35:58.292Z,984.12
2018-11-27T04:36:58.474Z,984.11
2018-11-27T04:37:59.568Z,984.16
2018-11-27T04:38:58.837Z,984.15
2018-11-27T04:39:59.011Z,984.19
2018-11-27T04:40:59.189Z,984.19
2018-11-27T04:41:59.370Z,984.20
2018-11-27T04:42:59.552Z,984.19
2018-11-27T04:43:59.732Z,984.21
2018-11-27T04:44:59.907Z,984.23
2018-11-27T04:46:00.093Z,984.22
2018-11-27T04:47:00.277Z,984.26
2018-11-27T04:48:00.452Z,984.28
2018-11-27T04:49:00.625Z,984.25
2018-11-27T04:50:00.801Z,984.26
2018-11-27T04:51:00.984Z,984.28
2018-11-27T04:52:01.159Z,984.29
2018-11-27T04:53:01.340Z,984.25
2018-11-27T04:54:01.522Z,984.28
2018-11-27T04:55:01.704Z,984.29
2018-11-27T04:56:01.910Z,984.31
2018-11-27T04:57:02.073Z,984.29
2018-11-27T04:58:02.258Z,984.32
2018-11-27T04:59:02.433Z,984.28
2018-11-27T05:00:02.615Z,984.32
2018-11-27T05:01:02.796Z,984.29
2018-11-27T05:02:02.971Z,984.30
2018-11-27T05:03:03.158Z,984.29
2018-11-27T05:04:03.335Z,984.32
2018-11-27T05:05:03.512Z,984.38
2018-11-27T05:06:03.694Z,984.35
2018-11-27T05:07:03.891Z,984.37
2018-11-27T05:08:04.068Z,984.44
2018-11-27T05:09:04.246Z,984.46
2018-11-27T05:10:04.430Z,984.42
2018-11-27T05:11:04.611Z,984.42
2018-11-27T05:12:04.788Z,984.45
2018-11-27T05:13:04.961Z,984.39
2018-11-27T05:14:05.148Z,984.45
2018-11-27T05:15:05.327Z,984.46
2018-11-27T05:16:05.496Z,984.45
2018-11-27T05:17:05.679Z,984.52
2018-11-27T05:18:05.858Z,984.51
2018-11-27T05:19:06.039Z,984.55
2018-11-27T05:20:06.217Z,984.54
2018-11-27T05:21:06.399Z,984.54
2018-11-27T05:22:06.586Z,984.54
2018-11-27T05:23:06.752Z,984.54
2018-11-27T05:24:06.934Z,984.55
2018-11-27T05:25:07.125Z,984.55
2018-11-27T05:26:07.303Z,984.57
2018-11-27T05:27:07.482Z,984.58
2018-11-27T05:28:07.655Z,984.60
2018-11-27T05:29:07.832Z,984.59
2018-11-27T05:30:08.015Z,984.67
2018-11-27T05:31:08.194Z,984.58
2018-11-27T05:32:08.373Z,984.61
2018-11-27T05:33:08.557Z,984.63
2018-11-27T05:34:08.733Z,984.62
2018-11-27T05:35:08.919Z,984.68
2018-11-27T05:36:09.098Z,984.68
2018-11-27T05:37:09.273Z,984.69
2018-11-27T05:38:09.449Z,984.68
2018-11-27T05:39:09.634Z,984.71
2018-11-27T05:40:09.819Z,984.68
2018-11-27T05:41:09.997Z,984.75
2018-11-27T05:42:10.174Z,984.72
2018-11-27T05:43:10.358Z,984.72
2018-11-27T05:44:10.538Z,984.72
2018-11-27T05:45:10.713Z,984.77
2018-11-27T05:46:10.901Z,984.77
2018-11-27T05:47:11.083Z,984.76
2018-11-27T05:48:11.270Z,984.80
2018-11-27T05:49:11.460Z,984.79
2018-11-27T05:50:11.645Z,984.77
2018-11-27T05:51:11.825Z,984.77
2018-11-27T05:52:12.026Z,984.75
2018-11-27T05:53:12.178Z,984.75
2018-11-27T05:54:12.358Z,984.76
2018-11-27T05:55:12.544Z,984.79
2018-11-27T05:56:12.726Z,984.78
2018-11-27T05:57:12.907Z,984.80
2018-11-27T05:58:13.154Z,984.77
2018-11-27T05:59:13.290Z,984.75
2018-11-27T06:00:13.472Z,984.73
2018-11-27T06:01:13.649Z,984.78
2018-11-27T06:02:13.831Z,984.77
2018-11-27T06:03:14.004Z,984.80
2018-11-27T06:04:14.187Z,984.82
2018-11-27T06:05:14.395Z,984.81
2018-11-27T06:06:14.596Z,984.81
2018-11-27T06:07:14.778Z,984.84
2018-11-27T06:08:14.951Z,984.89
2018-11-27T06:09:15.133Z,984.92
2018-11-27T06:10:15.312Z,984.89
2018-11-27T06:11:15.498Z,984.89
2018-11-27T06:12:15.674Z,984.94
2018-11-27T06:13:15.857Z,984.95
2018-11-27T06:14:16.038Z,984.96
2018-11-27T06:15:16.217Z,984.98
2018-11-27T06:16:16.395Z,985.01
2018-11-27T06:17:16.574Z,985.04
2018-11-27T06:18:16.756Z,985.02
2018-11-27T06:19:16.940Z,985.05
2018-11-27T06:20:17.119Z,985.04
2018-11-27T06:21:17.295Z,985.02
2018-11-27T06:22:17.475Z,985.06
2018-11-27T06:23:17.653Z,985.09
2018-11-27T06:24:17.834Z,985.09
2018-11-27T06:25:18.009Z,985.07
2018-11-27T06:26:18.194Z,985.12
2018-11-27T06:27:18.377Z,985.14
2018-11-27T06:28:18.548Z,985.11
2018-11-27T06:29:18.744Z,985.15
2018-11-27T06:30:18.913Z,985.17
2018-11-27T06:31:19.091Z,985.20
2018-11-27T06:32:21.402Z,985.20
2018-11-27T06:33:19.469Z,985.21
2018-11-27T06:34:19.655Z,985.22
2018-11-27T06:35:19.839Z,985.25
2018-11-27T06:36:20.016Z,985.27
2018-11-27T06:37:20.201Z,985.24
2018-11-27T06:38:20.377Z,985.26
2018-11-27T06:39:20.565Z,985.30
2018-11-27T06:40:20.751Z,985.30
2018-11-27T06:41:20.928Z,985.37
2018-11-27T06:42:21.111Z,985.37
2018-11-27T06:43:21.291Z,985.40
2018-11-27T06:44:21.475Z,985.35
2018-11-27T06:45:21.647Z,985.41
2018-11-27T06:46:21.843Z,985.42
2018-11-27T06:47:22.026Z,985.44
2018-11-27T06:48:22.202Z,985.44
2018-11-27T06:49:22.377Z,985.44
2018-11-27T06:50:22.552Z,985.54
2018-11-27T06:51:22.739Z,985.49
2018-11-27T06:52:22.919Z,985.53
2018-11-27T06:53:23.094Z,985.54
2018-11-27T06:54:23.289Z,985.56
2018-11-27T06:55:23.458Z,985.56
2018-11-27T06:56:23.633Z,985.57
2018-11-27T06:57:23.817Z,985.58
2018-11-27T06:58:23.995Z,985.60
2018-11-27T06:59:24.179Z,985.59
2018-11-27T07:00:24.355Z,985.62
2018-11-27T07:01:24.541Z,985.60
2018-11-27T07:02:24.714Z,985.65
2018-11-27T07:03:24.947Z,985.67
2018-11-27T07:04:25.080Z,985.70
2018-11-27T07:05:25.257Z,985.70
2018-11-27T07:06:25.438Z,985.70
2018-11-27T07:07:25.613Z,985.74
2018-11-27T07:08:25.794Z,985.76
2018-11-27T07:09:25.973Z,985.82
2018-11-27T07:10:26.147Z,985.84
2018-11-27T07:11:26.325Z,985.86
2018-11-27T07:12:26.506Z,985.86
2018-11-27T07:13:26.688Z,985.89
2018-11-27T07:14:26.870Z,985.83
2018-11-27T07:15:27.052Z,985.88
2018-11-27T07:16:27.229Z,985.93
2018-11-27T07:17:27.410Z,985.89
2018-11-27T07:18:27.580Z,985.85
2018-11-27T07:19:27.768Z,985.91
2018-11-27T07:20:27.947Z,985.92
2018-11-27T07:21:28.129Z,985.93
2018-11-27T07:22:28.307Z,985.91
2018-11-27T07:23:28.502Z,985.96
2018-11-27T07:24:28.680Z,985.99
2018-11-27T07:25:28.858Z,986.01
2018-11-27T07:26:29.032Z,985.99
2018-11-27T07:27:29.221Z,986.01
2018-11-27T07:28:29.397Z,986.03
2018-11-27T07:29:29.586Z,986.06
2018-11-27T07:30:29.762Z,986.12
2018-11-27T07:31:29.940Z,986.15
2018-11-27T07:32:30.125Z,986.14
2018-11-27T07:33:30.301Z,986.15
2018-11-27T07:34:30.525Z,986.14
2018-11-27T07:35:30.657Z,986.21
2018-11-27T07:36:30.837Z,986.21
2018-11-27T07:37:31.024Z,986.18
2018-11-27T07:38:31.198Z,986.23
2018-11-27T07:39:31.378Z,986.17
2018-11-27T07:40:31.555Z,986.17
2018-11-27T07:41:31.740Z,986.17
2018-11-27T07:42:31.926Z,986.20
2018-11-27T07:43:32.103Z,986.19
2018-11-27T07:44:32.292Z,986.15
2018-11-27T07:45:32.467Z,986.19
2018-11-27T07:46:32.648Z,986.18
2018-11-27T07:47:32.829Z,986.21
2018-11-27T07:48:33.010Z,986.24
2018-11-27T07:49:33.198Z,986.20
2018-11-27T07:50:33.383Z,986.26
2018-11-27T07:51:33.569Z,986.25
2018-11-27T07:52:33.742Z,986.32
2018-11-27T07:53:33.919Z,986.33
2018-11-27T07:54:34.110Z,986.32
2018-11-27T07:55:34.292Z,986.34
2018-11-27T07:56:34.475Z,986.32
2018-11-27T07:57:34.646Z,986.35
2018-11-27T07:58:34.825Z,986.33
2018-11-27T07:59:35.010Z,986.32
2018-11-27T08:00:35.191Z,986.35
2018-11-27T08:01:35.369Z,986.30
2018-11-27T08:02:35.551Z,986.33
2018-11-27T08:03:35.728Z,986.30
2018-11-27T08:04:35.919Z,986.29
2018-11-27T08:05:36.100Z,986.36
2018-11-27T08:06:36.287Z,986.35
2018-11-27T08:07:36.464Z,986.36
2018-11-27T08:08:36.644Z,986.40
2018-11-27T08:09:36.823Z,986.45
2018-11-27T08:10:37.001Z,986.46
2018-11-27T08:11:37.183Z,986.47
2018-11-27T08:12:37.358Z,986.54
2018-11-27T08:13:37.551Z,986.53
2018-11-27T08:14:37.723Z,986.57
2018-11-27T08:15:37.907Z,986.55
2018-11-27T08:16:38.088Z,986.56
2018-11-27T08:17:38.263Z,986.60
2018-11-27T08:18:38.444Z,986.58
2018-11-27T08:19:38.634Z,986.57
2018-11-27T08:20:38.815Z,986.55
2018-11-27T08:21:38.994Z,986.57
2018-11-27T08:22:39.177Z,986.55
2018-11-27T08:23:39.360Z,986.55
2018-11-27T08:24:39.535Z,986.57
2018-11-27T08:25:39.717Z,986.59
2018-11-27T08:26:39.902Z,986.59
2018-11-27T08:27:40.088Z,986.60
2018-11-27T08:28:40.279Z,986.60
2018-11-27T08:29:40.450Z,986.60
2018-11-27T08:30:40.627Z,986.60
2018-11-27T08:31:40.805Z,986.65
2018-11-27T08:32:40.988Z,986.65
2018-11-27T08:33:41.165Z,986.66
2018-11-27T08:34:41.343Z,986.63
2018-11-27T08:35:41.524Z,986.67
2018-11-27T08:36:41.709Z,986.74
2018-11-27T08:37:41.889Z,986.73
2018-11-27T08:38:42.064Z,986.78
2018-11-27T08:39:42.245Z,986.82
2018-11-27T08:40:42.425Z,986.77
2018-11-27T08:41:42.609Z,986.85
2018-11-27T08:42:42.786Z,986.83
2018-11-27T08:43:43.021Z,986.83
2018-11-27T08:44:43.147Z,986.84
2018-11-27T08:45:43.325Z,986.83
2018-11-27T08:46:43.517Z,986.82
2018-11-27T08:47:43.703Z,986.83
2018-11-27T08:48:43.880Z,986.82
2018-11-27T08:49:44.063Z,986.85
2018-11-27T08:50:44.242Z,986.82
2018-11-27T08:51:44.417Z,986.87
2018-11-27T08:52:46.857Z,986.90
2018-11-27T08:53:44.777Z,986.85
2018-11-27T08:54:44.971Z,986.92
2018-11-27T08:55:45.127Z,986.89
2018-11-27T08:56:45.307Z,986.97
2018-11-27T08:57:45.489Z,987.02
2018-11-27T08:58:45.669Z,987.05
2018-11-27T08:59:45.852Z,987.04
2018-11-27T09:00:46.046Z,987.07
2018-11-27T09:01:46.220Z,987.05
2018-11-27T09:02:46.402Z,987.10
2018-11-27T09:03:46.612Z,987.07
2018-11-27T09:04:46.764Z,987.19
2018-11-27T09:05:46.943Z,987.19
2018-11-27T09:06:47.131Z,987.21
2018-11-27T09:07:47.313Z,987.26
2018-11-27T09:08:47.489Z,987.21
2018-11-27T09:09:47.678Z,987.26
2018-11-27T09:10:47.867Z,987.26
2018-11-27T09:11:48.048Z,987.28
2018-11-27T09:12:48.231Z,987.29
2018-11-27T09:13:48.417Z,987.32
2018-11-27T09:14:48.594Z,987.28
2018-11-27T09:15:48.777Z,987.30
2018-11-27T09:16:48.961Z,987.30
2018-11-27T09:17:49.134Z,987.33
2018-11-27T09:18:49.317Z,987.37
2018-11-27T09:19:49.503Z,987.34
2018-11-27T09:20:49.679Z,987.35
2018-11-27T09:21:49.853Z,987.38
2018-11-27T09:22:50.030Z,987.35
2018-11-27T09:23:50.214Z,987.38
2018-11-27T09:24:50.391Z,987.41
2018-11-27T09:25:50.583Z,987.42
2018-11-27T09:26:50.755Z,987.44
2018-11-27T09:27:50.935Z,987.49
2018-11-27T09:28:51.121Z,987.51
2018-11-27T09:29:51.293Z,987.50
2018-11-27T09:30:51.477Z,987.51
2018-11-27T09:31:51.647Z,987.54
2018-11-27T09:32:51.829Z,987.53
2018-11-27T09:33:52.007Z,987.51
2018-11-27T09:34:52.183Z,987.56
2018-11-27T09:35:52.364Z,987.61
2018-11-27T09:36:52.546Z,987.57
2018-11-27T09:37:52.726Z,987.59
2018-11-27T09:38:52.910Z,987.59
2018-11-27T09:39:53.085Z,987.61
2018-11-27T09:40:53.264Z,987.60
2018-11-27T09:41:53.442Z,987.60
2018-11-27T09:42:53.627Z,987.60
2018-11-27T09:43:53.806Z,987.63
2018-11-27T09:44:53.992Z,987.63
2018-11-27T09:45:54.169Z,987.59
2018-11-27T09:46:54.350Z,987.57
2018-11-27T09:47:54.540Z,987.57
2018-11-27T09:48:54.715Z,987.63
2018-11-27T09:49:54.904Z,987.59
2018-11-27T09:50:55.087Z,987.63
2018-11-27T09:51:55.262Z,987.61
2018-11-27T09:52:55.445Z,987.59
2018-11-27T09:53:55.620Z,987.57
2018-11-27T09:54:55.802Z,987.62
2018-11-27T09:55:55.994Z,987.57
2018-11-27T09:56:56.163Z,987.58
2018-11-27T09:57:59.133Z,987.58
2018-11-27T09:58:56.533Z,987.55
2018-11-27T09:59:56.714Z,987.63
2018-11-27T10:00:56.898Z,987.62
2018-11-27T10:01:57.074Z,987.58
2018-11-27T10:02:57.263Z,987.59
2018-11-27T10:03:57.436Z,987.60
2018-11-27T10:04:57.617Z,987.57
2018-11-27T10:05:57.797Z,987.57
2018-11-27T10:06:57.986Z,987.57
2018-11-27T10:07:58.170Z,987.60
2018-11-27T10:08:58.364Z,987.61
2018-11-27T10:09:58.532Z,987.60
2018-11-27T10:10:58.708Z,987.61
2018-11-27T10:11:58.893Z,987.61
2018-11-27T10:12:59.070Z,987.57
2018-11-27T10:13:59.253Z,987.59
2018-11-27T10:14:59.437Z,987.58
2018-11-27T10:15:59.613Z,987.58
2018-11-27T10:16:59.806Z,987.57
2018-11-27T10:17:59.988Z,987.54
2018-11-27T10:19:00.169Z,987.57
2018-11-27T10:20:00.358Z,987.57
2018-11-27T10:21:00.529Z,987.53
2018-11-27T10:22:00.712Z,987.58
2018-11-27T10:23:00.889Z,987.52
2018-11-27T10:24:01.076Z,987.50
2018-11-27T10:25:01.316Z,987.50
2018-11-27T10:26:01.433Z,987.47
2018-11-27T10:27:01.616Z,987.53
2018-11-27T10:28:01.795Z,987.53
2018-11-27T10:29:01.973Z,987.49
2018-11-27T10:30:02.157Z,987.52
2018-11-27T10:31:02.337Z,987.51
2018-11-27T10:32:02.518Z,987.53
2018-11-27T10:33:02.699Z,987.57
2018-11-27T10:34:02.876Z,987.54
2018-11-27T10:35:03.054Z,987.57
2018-11-27T10:36:03.237Z,987.57
2018-11-27T10:37:03.431Z,987.54
2018-11-27T10:38:03.608Z,987.52
2018-11-27T10:39:03.793Z,987.54
2018-11-27T10:40:03.965Z,987.57
2018-11-27T10:41:04.151Z,987.59
2018-11-27T10:42:04.336Z,987.62
2018-11-27T10:43:04.517Z,987.58
2018-11-27T10:44:04.699Z,987.60
2018-11-27T10:45:04.879Z,987.58
2018-11-27T10:46:05.053Z,987.60
2018-11-27T10:47:05.245Z,987.58
2018-11-27T10:48:05.414Z,987.57
2018-11-27T10:49:05.612Z,987.57
2018-11-27T10:50:05.791Z,987.53
2018-11-27T10:51:05.974Z,987.53
2018-11-27T10:52:06.154Z,987.54
2018-11-27T10:53:06.338Z,987.51
2018-11-27T10:54:06.516Z,987.49
2018-11-27T10:55:06.700Z,987.47
2018-11-27T10:56:06.899Z,987.45
2018-11-27T10:57:07.082Z,987.41
2018-11-27T10:58:07.267Z,987.49
2018-11-27T10:59:07.440Z,987.46
2018-11-27T11:00:07.624Z,987.47
2018-11-27T11:01:07.808Z,987.47
2018-11-27T11:02:07.997Z,987.45
2018-11-27T11:03:08.177Z,987.46
2018-11-27T11:04:08.358Z,987.45
2018-11-27T11:05:08.549Z,987.47
2018-11-27T11:06:08.735Z,987.45
2018-11-27T11:07:08.915Z,987.46
2018-11-27T11:08:09.100Z,987.50
2018-11-27T11:09:09.279Z,987.53
2018-11-27T11:10:09.462Z,987.48
2018-11-27T11:11:09.642Z,987.50
2018-11-27T11:12:09.821Z,987.48
2018-11-27T11:13:10.012Z,987.50
2018-11-27T11:14:10.192Z,987.51
2018-11-27T11:15:10.382Z,987.52
2018-11-27T11:16:10.561Z,987.56
2018-11-27T11:17:10.739Z,987.56
2018-11-27T11:18:10.926Z,987.58
2018-11-27T11:19:11.109Z,987.59
2018-11-27T11:20:11.290Z,987.62
2018-11-27T11:21:11.474Z,987.62
2018-11-27T11:22:11.656Z,987.63
2018-11-27T11:23:11.835Z,987.63
2018-11-27T11:24:12.015Z,987.62
2018-11-27T11:25:12.201Z,987.65
2018-11-27T11:26:12.387Z,987.64
2018-11-27T11:27:12.569Z,987.66
2018-11-27T11:28:12.754Z,987.73
2018-11-27T11:29:12.932Z,987.68
2018-11-27T11:30:13.127Z,987.67
2018-11-27T11:31:13.313Z,987.69
2018-11-27T11:32:13.497Z,987.70
2018-11-27T11:33:13.685Z,987.68
2018-11-27T11:34:13.865Z,987.66
2018-11-27T11:35:14.064Z,987.71
2018-11-27T11:36:14.258Z,987.71
2018-11-27T11:37:14.449Z,987.68
2018-11-27T11:38:14.627Z,987.67
2018-11-27T11:39:14.813Z,987.67
2018-11-27T11:40:14.990Z,987.70
2018-11-27T11:41:15.183Z,987.72
2018-11-27T11:42:15.361Z,987.73
2018-11-27T11:43:15.545Z,987.72
2018-11-27T11:44:15.722Z,987.73
2018-11-27T11:45:15.914Z,987.75
2018-11-27T11:46:16.098Z,987.77
2018-11-27T11:47:16.281Z,987.78
2018-11-27T11:48:16.463Z,987.80
2018-11-27T11:49:16.650Z,987.88
2018-11-27T11:50:16.830Z,987.90
2018-11-27T11:51:17.010Z,987.94
2018-11-27T11:52:17.192Z,987.92
2018-11-27T11:53:17.372Z,987.97
2018-11-27T11:54:17.564Z,987.94
2018-11-27T11:55:17.746Z,987.95
2018-11-27T11:56:17.926Z,987.97
2018-11-27T11:57:18.108Z,987.98
2018-11-27T11:58:18.292Z,987.96
2018-11-27T11:59:18.472Z,987.96
2018-11-27T12:00:18.653Z,987.94
2018-11-27T12:01:18.841Z,987.94
2018-11-27T12:02:19.022Z,987.95
2018-11-27T12:03:19.209Z,987.94
2018-11-27T12:04:19.401Z,987.93
2018-11-27T12:05:24.914Z,987.92
2018-11-27T12:06:19.762Z,987.94
2018-11-27T12:07:19.944Z,987.94
2018-11-27T12:08:20.124Z,987.93
2018-11-27T12:09:20.307Z,987.94
2018-11-27T12:10:20.484Z,987.99
2018-11-27T12:11:20.670Z,987.94
2018-11-27T12:12:20.860Z,987.94
2018-11-27T12:13:21.035Z,987.92
2018-11-27T12:14:21.218Z,987.93
2018-11-27T12:15:21.402Z,987.93
2018-11-27T12:16:21.585Z,987.93
2018-11-27T12:17:21.774Z,987.98
2018-11-27T12:18:21.956Z,987.94
2018-11-27T12:19:22.146Z,987.93
2018-11-27T12:20:22.326Z,987.94
2018-11-27T12:21:22.507Z,987.97
2018-11-27T12:22:22.691Z,987.94
2018-11-27T12:23:22.871Z,987.95
2018-11-27T12:24:23.064Z,987.97
2018-11-27T12:25:24.399Z,987.91
2018-11-27T12:26:23.443Z,987.94
2018-11-27T12:27:23.625Z,987.93
2018-11-27T12:28:23.840Z,987.91
2018-11-27T12:29:24.035Z,987.92
2018-11-27T12:30:24.218Z,987.93